Time;durP1;ratioP1;P1;durP2;ratioP2;P2;SDS_P1;SDS_P2;PMS_P1;PMS_P2;Temp;Humidity;BMP_temperature;BMP_pressure;BME280_temperature;BME280_humidity;BME280_pressure;Samples;Min_cycle;Max_cycle;Signal;HPM_P1;HPM_P2
2021/12/30 00:02:28;;;;;;;55.87;25.10;;;;;;;;;;5056093;28;20478;-81
2021/12/30 00:04:54;;;;;;;53.37;25.37;;;;;;;;;;5058578;28;21001;-79
2021/12/30 00:07:20;;;;;;;46.00;24.77;;;;;;;;;;5059353;28;20479;-79
2021/12/30 00:09:47;;;;;;;49.80;23.43;;;;;;;;;;5056325;28;20468;-79
2021/12/30 00:12:13;;;;;;;47.93;23.30;;;;;;;;;;5060248;28;20472;-79
2021/12/30 00:14:39;;;;;;;51.80;21.07;;;;;;;;;;5057929;28;20447;-80
2021/12/30 00:17:05;;;;;;;47.47;21.73;;;;;;;;;;5058140;28;20512;-79
2021/12/30 00:19:33;;;;;;;51.37;23.47;;;;;;;;;;5057538;28;20517;-80
2021/12/30 00:21:59;;;;;;;49.27;20.20;;;;;;;;;;5056835;28;20882;-79
2021/12/30 00:24:26;;;;;;;44.40;19.17;;;;;;;;;;5059289;28;20448;-79
2021/12/30 00:26:52;;;;;;;45.83;20.03;;;;;;;;;;5058419;28;20528;-80
2021/12/30 00:29:18;;;;;;;37.87;17.77;;;;;;;;;;5060364;28;21112;-80
2021/12/30 00:31:45;;;;;;;39.43;18.30;;;;;;;;;;5056964;28;20475;-79
2021/12/30 00:34:12;;;;;;;32.83;16.63;;;;;;;;;;5055127;28;20526;-79
2021/12/30 00:36:39;;;;;;;43.23;16.93;;;;;;;;;;5056725;28;20471;-79
2021/12/30 00:39:05;;;;;;;55.23;18.00;;;;;;;;;;5057818;28;20498;-79
2021/12/30 00:41:32;;;;;;;32.47;16.27;;;;;;;;;;5057182;28;20474;-79
2021/12/30 00:43:58;;;;;;;40.67;16.73;;;;;;;;;;5057558;28;20448;-79
2021/12/30 00:46:24;;;;;;;30.73;14.87;;;;;;;;;;5058539;28;20577;-79
2021/12/30 00:48:50;;;;;;;37.33;15.83;;;;;;;;;;5056915;28;20488;-79
2021/12/30 00:51:17;;;;;;;29.70;14.40;;;;;;;;;;5058454;28;20475;-79
2021/12/30 00:53:44;;;;;;;31.70;13.80;;;;;;;;;;5055238;28;20501;-77
2021/12/30 00:56:11;;;;;;;30.97;14.10;;;;;;;;;;5052978;28;20459;-79
2021/12/30 00:58:37;;;;;;;36.80;14.40;;;;;;;;;;5056871;28;20446;-79
2021/12/30 01:01:04;;;;;;;36.37;13.30;;;;;;;;;;5056734;28;20470;-79
2021/12/30 01:03:31;;;;;;;34.40;13.37;;;;;;;;;;5057816;28;20513;-79
2021/12/30 01:05:57;;;;;;;34.30;13.03;;;;;;;;;;5057872;28;20460;-80
2021/12/30 01:08:24;;;;;;;41.87;13.10;;;;;;;;;;5058366;28;21008;-80
2021/12/30 01:10:52;;;;;;;36.77;11.80;;;;;;;;;;5056123;28;21019;-79
2021/12/30 01:13:24;;;;;;;37.57;13.13;;;;;;;;;;5057955;28;20878;-79
2021/12/30 01:15:58;;;;;;;31.87;11.93;;;;;;;;;;5057541;28;20539;-79
2021/12/30 01:18:34;;;;;;;36.50;12.50;;;;;;;;;;5055327;28;20516;-80
2021/12/30 01:21:01;;;;;;;29.07;10.63;;;;;;;;;;5058355;28;20551;-80
2021/12/30 01:23:28;;;;;;;39.90;11.50;;;;;;;;;;5059113;28;21026;-80
2021/12/30 01:25:56;;;;;;;31.50;11.40;;;;;;;;;;5051888;28;20541;-79
2021/12/30 01:28:22;;;;;;;24.43;10.63;;;;;;;;;;5057968;28;20787;-79
2021/12/30 01:30:49;;;;;;;26.27;9.97;;;;;;;;;;5056787;28;20494;-79
2021/12/30 01:33:15;;;;;;;32.37;10.37;;;;;;;;;;5056102;28;20895;-79
2021/12/30 01:35:42;;;;;;;29.33;9.80;;;;;;;;;;5055558;28;20466;-81
2021/12/30 01:38:11;;;;;;;22.93;8.97;;;;;;;;;;5057360;28;20478;-79
2021/12/30 01:40:38;;;;;;;36.57;9.33;;;;;;;;;;5055855;28;20512;-81
2021/12/30 01:43:07;;;;;;;29.67;10.20;;;;;;;;;;5057274;28;20481;-80
2021/12/30 01:45:33;;;;;;;31.43;9.40;;;;;;;;;;5057774;28;20455;-80
2021/12/30 01:48:00;;;;;;;30.50;9.50;;;;;;;;;;5053730;28;20474;-76
2021/12/30 01:50:26;;;;;;;29.67;10.30;;;;;;;;;;5055923;28;20503;-79
2021/12/30 01:52:53;;;;;;;27.93;9.03;;;;;;;;;;5056602;28;20900;-80
2021/12/30 01:55:20;;;;;;;32.90;9.70;;;;;;;;;;5057508;28;20506;-79
2021/12/30 01:57:47;;;;;;;39.90;10.57;;;;;;;;;;5061214;28;21002;-79
2021/12/30 02:00:16;;;;;;;19.10;7.70;;;;;;;;;;5060246;28;20466;-80
2021/12/30 02:02:43;;;;;;;33.40;8.80;;;;;;;;;;5058294;28;20839;-78
2021/12/30 02:05:09;;;;;;;30.10;9.47;;;;;;;;;;5059763;28;20447;-79
2021/12/30 02:07:36;;;;;;;30.03;9.83;;;;;;;;;;5060410;28;20466;-80
2021/12/30 02:10:03;;;;;;;34.97;9.00;;;;;;;;;;5060722;28;20474;-80
2021/12/30 02:12:31;;;;;;;33.17;10.00;;;;;;;;;;5061189;28;20468;-80
2021/12/30 02:14:58;;;;;;;29.43;10.60;;;;;;;;;;5055734;28;20514;-79
2021/12/30 02:17:26;;;;;;;25.83;9.30;;;;;;;;;;5059731;28;20474;-79
2021/12/30 02:19:56;;;;;;;33.03;8.33;;;;;;;;;;5055748;28;20500;-80
2021/12/30 02:22:23;;;;;;;29.40;9.10;;;;;;;;;;5058189;28;20464;-79
2021/12/30 02:24:50;;;;;;;40.27;10.37;;;;;;;;;;5060929;28;20447;-79
2021/12/30 02:27:16;;;;;;;30.30;8.67;;;;;;;;;;5059637;28;20474;-80
2021/12/30 02:29:42;;;;;;;38.73;10.53;;;;;;;;;;5057623;28;21008;-79
2021/12/30 02:32:10;;;;;;;23.00;8.90;;;;;;;;;;5056147;28;20487;-80
2021/12/30 02:34:38;;;;;;;31.93;11.73;;;;;;;;;;5060902;28;20451;-79
2021/12/30 02:37:07;;;;;;;38.37;9.57;;;;;;;;;;5059436;28;20498;-79
2021/12/30 02:39:33;;;;;;;36.33;9.87;;;;;;;;;;5060978;28;20446;-79
2021/12/30 02:41:59;;;;;;;29.60;10.60;;;;;;;;;;5057710;28;20497;-80
2021/12/30 02:44:26;;;;;;;37.23;11.47;;;;;;;;;;5057202;28;20458;-80
2021/12/30 02:46:52;;;;;;;37.70;12.03;;;;;;;;;;5059705;28;20818;-79
2021/12/30 02:49:18;;;;;;;47.87;11.13;;;;;;;;;;5059361;28;20476;-79
2021/12/30 02:51:45;;;;;;;33.53;11.47;;;;;;;;;;5059883;28;20518;-79
2021/12/30 02:54:13;;;;;;;52.10;12.27;;;;;;;;;;5061017;28;20454;-79
2021/12/30 02:56:46;;;;;;;38.87;12.27;;;;;;;;;;5059516;28;20483;-80
2021/12/30 02:59:12;;;;;;;33.50;12.07;;;;;;;;;;5055281;28;20459;-79
2021/12/30 03:01:39;;;;;;;40.53;10.50;;;;;;;;;;5056197;28;20463;-80
2021/12/30 03:04:05;;;;;;;34.77;11.40;;;;;;;;;;5058744;28;20945;-80
2021/12/30 03:06:32;;;;;;;41.10;11.00;;;;;;;;;;5060273;28;20480;-79
2021/12/30 03:08:58;;;;;;;41.60;11.50;;;;;;;;;;5060981;28;20537;-79
2021/12/30 03:11:27;;;;;;;36.23;11.03;;;;;;;;;;5059575;28;20984;-80
2021/12/30 03:13:54;;;;;;;40.67;11.43;;;;;;;;;;5059052;28;20545;-80
2021/12/30 03:16:21;;;;;;;29.93;11.53;;;;;;;;;;5054056;28;20510;-80
2021/12/30 03:18:49;;;;;;;43.87;11.40;;;;;;;;;;5060104;28;20447;-79
2021/12/30 03:21:16;;;;;;;31.70;11.13;;;;;;;;;;5058096;28;20455;-80
2021/12/30 03:23:43;;;;;;;39.70;11.50;;;;;;;;;;5061397;28;20460;-79
2021/12/30 03:26:10;;;;;;;33.07;11.73;;;;;;;;;;5058690;28;20447;-79
2021/12/30 03:28:40;;;;;;;39.87;12.17;;;;;;;;;;5059224;28;20851;-80
2021/12/30 03:31:06;;;;;;;43.70;13.10;;;;;;;;;;5057135;28;20480;-80
2021/12/30 03:33:33;;;;;;;39.10;13.77;;;;;;;;;;5057648;28;20805;-79
2021/12/30 03:36:00;;;;;;;58.93;14.73;;;;;;;;;;5057366;28;20446;-79
2021/12/30 03:38:27;;;;;;;43.07;13.73;;;;;;;;;;5058791;28;20443;-79
2021/12/30 03:40:53;;;;;;;42.03;11.20;;;;;;;;;;5057113;28;20529;-79
2021/12/30 03:43:19;;;;;;;37.40;12.57;;;;;;;;;;5058765;28;20810;-79
2021/12/30 03:45:47;;;;;;;46.80;13.60;;;;;;;;;;5059310;28;20520;-79
2021/12/30 03:48:13;;;;;;;41.43;12.00;;;;;;;;;;5057601;28;20486;-80
2021/12/30 03:50:43;;;;;;;45.93;11.40;;;;;;;;;;5056355;28;20471;-79
2021/12/30 03:53:10;;;;;;;47.53;13.23;;;;;;;;;;5058969;28;20478;-79
2021/12/30 03:55:37;;;;;;;43.97;10.60;;;;;;;;;;5060176;28;20462;-80
2021/12/30 03:58:03;;;;;;;41.60;11.53;;;;;;;;;;5055916;28;20530;-76
2021/12/30 04:00:30;;;;;;;44.17;12.50;;;;;;;;;;5057771;28;20471;-80
2021/12/30 04:02:58;;;;;;;44.57;11.07;;;;;;;;;;5055583;28;20883;-79
2021/12/30 04:05:24;;;;;;;36.20;10.40;;;;;;;;;;5057765;28;20451;-80
2021/12/30 04:07:51;;;;;;;41.67;10.87;;;;;;;;;;5058251;28;20525;-79
2021/12/30 04:10:21;;;;;;;48.17;11.43;;;;;;;;;;5056365;28;20479;-79
2021/12/30 04:12:47;;;;;;;47.57;12.70;;;;;;;;;;5057806;28;20551;-79
2021/12/30 04:15:13;;;;;;;43.73;11.90;;;;;;;;;;5059616;28;20448;-79
2021/12/30 04:17:40;;;;;;;33.40;10.67;;;;;;;;;;5057287;28;20482;-79
2021/12/30 04:20:09;;;;;;;46.73;11.00;;;;;;;;;;5057487;28;20479;-78
2021/12/30 04:22:36;;;;;;;44.07;11.27;;;;;;;;;;5057841;28;20490;-80
2021/12/30 04:25:02;;;;;;;37.20;11.13;;;;;;;;;;5057492;28;20460;-78
2021/12/30 04:27:29;;;;;;;32.70;9.93;;;;;;;;;;5055679;28;21022;-80
2021/12/30 04:29:55;;;;;;;43.83;10.20;;;;;;;;;;5055521;28;20536;-79
2021/12/30 04:32:21;;;;;;;46.37;9.70;;;;;;;;;;5057665;28;20540;-76
2021/12/30 04:34:47;;;;;;;42.33;10.33;;;;;;;;;;5055247;28;20439;-79
2021/12/30 04:37:15;;;;;;;43.77;11.77;;;;;;;;;;5056291;28;20826;-79
2021/12/30 04:39:41;;;;;;;42.43;12.27;;;;;;;;;;5056443;28;20525;-79
2021/12/30 04:42:08;;;;;;;48.60;11.03;;;;;;;;;;5055618;28;20471;-80
2021/12/30 04:44:34;;;;;;;52.37;14.10;;;;;;;;;;5058560;28;20464;-79
2021/12/30 04:47:01;;;;;;;45.47;12.10;;;;;;;;;;5058208;28;20700;-78
2021/12/30 04:49:27;;;;;;;36.77;11.43;;;;;;;;;;5058321;28;20582;-79
2021/12/30 04:51:53;;;;;;;46.10;10.47;;;;;;;;;;5056234;28;20521;-79
2021/12/30 04:54:21;;;;;;;42.73;13.50;;;;;;;;;;5057461;28;20465;-79
2021/12/30 04:56:47;;;;;;;58.53;16.27;;;;;;;;;;5056910;28;20464;-80
2021/12/30 04:59:14;;;;;;;62.07;18.73;;;;;;;;;;5054217;28;20483;-79
2021/12/30 05:01:40;;;;;;;68.37;18.67;;;;;;;;;;5055523;28;20475;-79
2021/12/30 05:04:06;;;;;;;57.47;18.90;;;;;;;;;;5057534;28;20444;-79
2021/12/30 05:06:34;;;;;;;57.20;17.17;;;;;;;;;;5056817;28;20464;-80
2021/12/30 05:09:00;;;;;;;55.47;18.17;;;;;;;;;;5056970;28;20495;-79
2021/12/30 05:11:28;;;;;;;50.37;15.93;;;;;;;;;;5058305;28;21110;-79
2021/12/30 05:13:54;;;;;;;50.27;16.77;;;;;;;;;;5056297;28;20475;-79
2021/12/30 05:16:20;;;;;;;49.67;17.83;;;;;;;;;;5055763;28;20505;-80
2021/12/30 05:18:48;;;;;;;63.63;17.30;;;;;;;;;;5057484;28;20435;-78
2021/12/30 05:21:15;;;;;;;66.40;18.87;;;;;;;;;;5056322;28;20493;-79
2021/12/30 05:23:41;;;;;;;55.73;19.10;;;;;;;;;;5060636;28;20498;-79
2021/12/30 05:26:07;;;;;;;56.43;18.80;;;;;;;;;;5056436;28;20483;-79
2021/12/30 05:28:35;;;;;;;52.87;19.27;;;;;;;;;;5055601;28;20439;-79
2021/12/30 05:31:01;;;;;;;50.83;20.50;;;;;;;;;;5060319;28;20494;-80
2021/12/30 05:33:28;;;;;;;54.33;19.10;;;;;;;;;;5062171;28;20498;-79
2021/12/30 05:35:54;;;;;;;64.10;20.27;;;;;;;;;;5063421;28;20451;-80
2021/12/30 05:38:20;;;;;;;60.70;19.40;;;;;;;;;;5062565;28;20998;-79
2021/12/30 05:40:46;;;;;;;56.60;20.97;;;;;;;;;;5062590;28;20840;-80
2021/12/30 05:43:13;;;;;;;62.17;20.67;;;;;;;;;;5062684;28;20467;-79
2021/12/30 05:45:40;;;;;;;74.70;21.80;;;;;;;;;;5064683;28;20629;-79
2021/12/30 05:48:07;;;;;;;62.23;21.73;;;;;;;;;;5064386;28;20472;-79
2021/12/30 05:50:33;;;;;;;65.63;22.63;;;;;;;;;;5065096;28;20495;-79
2021/12/30 05:53:00;;;;;;;74.37;23.97;;;;;;;;;;5062564;28;20476;-79
2021/12/30 05:55:28;;;;;;;70.97;25.07;;;;;;;;;;5063041;28;20481;-79
2021/12/30 05:57:55;;;;;;;81.53;26.23;;;;;;;;;;5062488;28;20621;-79
2021/12/30 06:00:22;;;;;;;71.80;28.20;;;;;;;;;;5062881;28;20467;-79
2021/12/30 06:02:50;;;;;;;76.67;25.50;;;;;;;;;;5061913;28;20480;-81
2021/12/30 06:05:17;;;;;;;60.57;23.20;;;;;;;;;;5064086;28;20543;-79
2021/12/30 06:07:43;;;;;;;51.17;23.33;;;;;;;;;;5062757;28;20494;-79
2021/12/30 06:10:10;;;;;;;66.47;21.20;;;;;;;;;;5061750;28;20487;-79
2021/12/30 06:12:36;;;;;;;71.00;21.90;;;;;;;;;;5062710;28;20490;-78
2021/12/30 06:15:02;;;;;;;73.57;23.37;;;;;;;;;;5063170;28;20450;-79
2021/12/30 06:17:29;;;;;;;63.63;23.60;;;;;;;;;;5061729;28;20844;-79
2021/12/30 06:19:56;;;;;;;56.00;21.13;;;;;;;;;;5063335;28;20490;-80
2021/12/30 06:22:23;;;;;;;75.70;21.83;;;;;;;;;;5061669;28;21008;-79
2021/12/30 06:24:49;;;;;;;53.33;22.10;;;;;;;;;;5063240;28;20453;-79
2021/12/30 06:27:15;;;;;;;57.83;23.10;;;;;;;;;;5064440;28;20463;-79
2021/12/30 06:29:41;;;;;;;61.23;23.37;;;;;;;;;;5061413;28;20482;-80
2021/12/30 06:32:08;;;;;;;56.40;21.53;;;;;;;;;;5061699;28;20554;-80
2021/12/30 06:34:35;;;;;;;63.77;22.87;;;;;;;;;;5061968;28;20447;-79
2021/12/30 06:37:03;;;;;;;73.60;26.00;;;;;;;;;;5061499;28;20471;-79
2021/12/30 06:39:29;;;;;;;60.30;22.10;;;;;;;;;;5063981;28;20448;-80
2021/12/30 06:41:55;;;;;;;70.37;27.13;;;;;;;;;;5061512;28;20479;-79
2021/12/30 06:44:22;;;;;;;76.37;26.57;;;;;;;;;;5060107;28;20456;-80
2021/12/30 06:46:54;;;;;;;69.90;25.17;;;;;;;;;;5058684;28;20472;-80
2021/12/30 06:49:20;;;;;;;52.30;23.63;;;;;;;;;;5059128;28;21195;-79
2021/12/30 06:51:47;;;;;;;67.03;23.63;;;;;;;;;;5057099;28;20471;-80
2021/12/30 06:54:15;;;;;;;72.83;23.70;;;;;;;;;;5061011;28;20452;-79
2021/12/30 06:56:41;;;;;;;50.70;23.20;;;;;;;;;;5058164;28;20525;-80
2021/12/30 06:59:08;;;;;;;66.50;24.90;;;;;;;;;;5059300;28;20464;-79
2021/12/30 07:01:34;;;;;;;73.30;25.40;;;;;;;;;;5058162;28;20467;-79
2021/12/30 07:04:00;;;;;;;78.13;26.00;;;;;;;;;;5059911;28;20586;-79
2021/12/30 07:06:26;;;;;;;72.40;26.23;;;;;;;;;;5054835;28;20471;-80
2021/12/30 07:08:53;;;;;;;67.77;27.10;;;;;;;;;;5057061;28;20456;-79
2021/12/30 07:11:20;;;;;;;87.37;32.40;;;;;;;;;;5060569;28;20471;-79
2021/12/30 07:13:46;;;;;;;72.27;30.27;;;;;;;;;;5062309;28;20444;-79
2021/12/30 07:16:13;;;;;;;86.13;35.23;;;;;;;;;;5060461;28;20806;-80
2021/12/30 07:18:39;;;;;;;88.73;37.07;;;;;;;;;;5061010;28;20874;-80
2021/12/30 07:21:05;;;;;;;106.60;38.80;;;;;;;;;;5055119;28;20885;-80
2021/12/30 07:23:31;;;;;;;94.40;33.27;;;;;;;;;;5055124;28;20464;-79
2021/12/30 07:25:58;;;;;;;78.30;32.27;;;;;;;;;;5059338;28;20504;-79
2021/12/30 07:28:25;;;;;;;67.00;26.07;;;;;;;;;;5060093;28;20502;-79
2021/12/30 07:30:51;;;;;;;69.87;27.10;;;;;;;;;;5058903;28;20484;-79
2021/12/30 07:33:18;;;;;;;74.10;27.37;;;;;;;;;;5061851;28;20459;-81
2021/12/30 07:35:44;;;;;;;67.83;25.67;;;;;;;;;;5061822;28;20450;-80
2021/12/30 07:38:10;;;;;;;76.33;24.50;;;;;;;;;;5058467;28;20480;-81
2021/12/30 07:40:36;;;;;;;80.87;24.63;;;;;;;;;;5055087;28;20578;-80
2021/12/30 07:43:03;;;;;;;63.53;24.00;;;;;;;;;;5054967;28;20483;-80
2021/12/30 07:45:30;;;;;;;67.30;23.10;;;;;;;;;;5059948;28;20858;-80
2021/12/30 07:47:57;;;;;;;71.17;24.70;;;;;;;;;;5060107;28;20473;-81
2021/12/30 07:50:24;;;;;;;63.93;22.83;;;;;;;;;;5060843;28;20514;-81
2021/12/30 07:52:50;;;;;;;64.70;23.70;;;;;;;;;;5059755;28;20487;-81
2021/12/30 07:55:16;;;;;;;53.83;21.10;;;;;;;;;;5058375;28;20470;-81
2021/12/30 07:57:43;;;;;;;66.93;24.23;;;;;;;;;;5057332;28;20860;-80
2021/12/30 08:00:11;;;;;;;62.47;22.83;;;;;;;;;;5058614;28;20847;-81
2021/12/30 08:02:40;;;;;;;66.13;21.90;;;;;;;;;;5060329;28;20472;-80
2021/12/30 08:05:07;;;;;;;73.47;24.17;;;;;;;;;;5059798;28;20533;-82
2021/12/30 08:07:33;;;;;;;54.23;21.13;;;;;;;;;;5062347;28;20475;-81
2021/12/30 08:09:59;;;;;;;65.47;21.03;;;;;;;;;;5059343;28;20490;-80
2021/12/30 08:12:26;;;;;;;63.53;21.10;;;;;;;;;;5058405;28;20479;-82
2021/12/30 08:14:52;;;;;;;51.03;20.47;;;;;;;;;;5059542;28;20451;-81
2021/12/30 08:17:18;;;;;;;56.43;19.97;;;;;;;;;;5060201;28;20472;-81
2021/12/30 08:19:47;;;;;;;63.43;20.73;;;;;;;;;;5061674;28;20479;-80
2021/12/30 08:22:14;;;;;;;53.27;18.70;;;;;;;;;;5061172;28;20522;-81
2021/12/30 08:24:40;;;;;;;52.47;19.57;;;;;;;;;;5061809;28;21010;-81
2021/12/30 08:27:08;;;;;;;50.17;20.63;;;;;;;;;;5060498;28;20475;-82
2021/12/30 08:29:35;;;;;;;43.27;19.30;;;;;;;;;;5058504;28;20820;-80
2021/12/30 08:32:01;;;;;;;54.77;21.10;;;;;;;;;;5059406;28;20480;-81
2021/12/30 08:34:27;;;;;;;52.37;20.13;;;;;;;;;;5059280;28;20464;-81
2021/12/30 08:36:55;;;;;;;69.00;23.80;;;;;;;;;;5058107;28;20479;-81
2021/12/30 08:39:21;;;;;;;57.00;23.60;;;;;;;;;;5058811;28;20450;-81
2021/12/30 08:41:47;;;;;;;65.33;26.40;;;;;;;;;;5060689;28;20521;-81
2021/12/30 08:44:13;;;;;;;90.07;28.67;;;;;;;;;;5060643;28;20464;-81
2021/12/30 08:46:40;;;;;;;80.23;29.43;;;;;;;;;;5059857;28;21584;-81
2021/12/30 08:49:06;;;;;;;57.83;27.10;;;;;;;;;;5060116;28;20816;-81
2021/12/30 08:51:32;;;;;;;91.03;32.73;;;;;;;;;;5060135;28;20467;-81
2021/12/30 08:54:00;;;;;;;85.63;32.30;;;;;;;;;;5060160;28;20470;-81
2021/12/30 08:56:26;;;;;;;67.07;30.10;;;;;;;;;;5058610;28;20470;-81
2021/12/30 08:58:52;;;;;;;84.50;30.10;;;;;;;;;;5056600;28;20477;-82
2021/12/30 09:01:19;;;;;;;72.43;31.07;;;;;;;;;;5054555;28;20486;-80
2021/12/30 09:03:45;;;;;;;55.67;26.47;;;;;;;;;;5059497;28;20492;-81
2021/12/30 09:06:11;;;;;;;71.40;29.40;;;;;;;;;;5057656;28;20509;-81
2021/12/30 09:08:37;;;;;;;51.73;23.77;;;;;;;;;;5057021;28;20498;-80
2021/12/30 09:11:05;;;;;;;61.27;26.87;;;;;;;;;;5058601;28;20480;-81
2021/12/30 09:13:31;;;;;;;50.37;23.77;;;;;;;;;;5058147;28;20448;-80
2021/12/30 09:15:58;;;;;;;61.57;25.10;;;;;;;;;;5057158;28;20455;-82
2021/12/30 09:18:24;;;;;;;80.33;27.20;;;;;;;;;;5059775;28;20537;-81
2021/12/30 09:20:51;;;;;;;57.27;22.67;;;;;;;;;;5058698;28;21229;-81
2021/12/30 09:23:17;;;;;;;52.50;23.57;;;;;;;;;;5055780;28;20463;-78
2021/12/30 09:25:43;;;;;;;57.47;20.00;;;;;;;;;;5057207;28;20542;-78
2021/12/30 09:28:12;;;;;;;51.47;22.20;;;;;;;;;;5056536;28;20478;-79
2021/12/30 09:30:39;;;;;;;51.50;22.00;;;;;;;;;;5057475;28;20553;-79
2021/12/30 09:33:06;;;;;;;44.97;20.10;;;;;;;;;;5057662;28;20882;-79
2021/12/30 09:35:33;;;;;;;41.00;18.37;;;;;;;;;;5056301;28;20452;-79
2021/12/30 09:37:59;;;;;;;35.63;16.47;;;;;;;;;;5056052;28;20482;-76
2021/12/30 09:40:26;;;;;;;39.47;15.53;;;;;;;;;;5056624;28;20904;-79
2021/12/30 09:43:01;;;;;;;41.17;17.33;;;;;;;;;;5058200;28;20476;-78
2021/12/30 09:45:28;;;;;;;46.90;16.77;;;;;;;;;;5059500;28;20435;-79
2021/12/30 09:47:55;;;;;;;38.53;14.73;;;;;;;;;;5056887;28;20478;-79
2021/12/30 09:50:24;;;;;;;29.40;14.97;;;;;;;;;;5057290;28;20491;-81
2021/12/30 09:52:50;;;;;;;33.93;14.27;;;;;;;;;;5055320;28;20521;-79
2021/12/30 09:55:17;;;;;;;29.90;13.73;;;;;;;;;;5053188;28;20459;-80
2021/12/30 09:57:43;;;;;;;34.43;16.30;;;;;;;;;;5054322;28;20475;-79
2021/12/30 10:00:11;;;;;;;30.23;14.80;;;;;;;;;;5055672;28;20475;-78
2021/12/30 10:02:40;;;;;;;48.23;22.33;;;;;;;;;;5056475;28;20514;-78
2021/12/30 10:05:08;;;;;;;41.50;21.13;;;;;;;;;;5058182;28;20509;-79
2021/12/30 10:07:34;;;;;;;51.17;29.47;;;;;;;;;;5056881;28;20862;-78
2021/12/30 10:10:03;;;;;;;57.20;32.23;;;;;;;;;;5054328;28;20475;-80
2021/12/30 10:12:33;;;;;;;53.50;30.10;;;;;;;;;;5058941;28;20473;-80
2021/12/30 10:14:59;;;;;;;37.87;19.50;;;;;;;;;;5058041;28;20447;-80
2021/12/30 10:17:26;;;;;;;43.37;21.40;;;;;;;;;;5059618;28;20459;-80
2021/12/30 10:19:54;;;;;;;45.47;26.43;;;;;;;;;;5062916;28;20545;-80
2021/12/30 10:22:22;;;;;;;53.20;28.70;;;;;;;;;;5062546;28;20467;-79
2021/12/30 10:24:49;;;;;;;40.70;22.73;;;;;;;;;;5063361;28;20531;-78
2021/12/30 10:27:25;;;;;;;44.73;27.47;;;;;;;;;;5063621;28;20527;-79
2021/12/30 10:29:51;;;;;;;48.20;29.40;;;;;;;;;;5060851;28;20479;-80
2021/12/30 10:32:19;;;;;;;50.27;24.33;;;;;;;;;;5062947;28;20479;-79
2021/12/30 10:35:06;;;;;;;38.80;22.50;;;;;;;;;;5062635;28;20949;-78
2021/12/30 10:37:32;;;;;;;29.60;19.27;;;;;;;;;;5061433;28;20467;-80
2021/12/30 10:39:59;;;;;;;42.47;25.37;;;;;;;;;;5062470;28;20578;-79
2021/12/30 10:42:30;;;;;;;50.27;30.57;;;;;;;;;;5062865;28;20515;-80
2021/12/30 10:44:57;;;;;;;71.60;43.17;;;;;;;;;;5062947;28;20967;-80
2021/12/30 10:47:24;;;;;;;55.20;34.20;;;;;;;;;;5061143;28;21066;-79
2021/12/30 10:49:57;;;;;;;66.37;40.87;;;;;;;;;;5061530;28;20913;-79
2021/12/30 10:52:25;;;;;;;58.63;37.10;;;;;;;;;;5061906;28;20469;-79
2021/12/30 10:54:52;;;;;;;52.03;32.83;;;;;;;;;;5062681;28;20459;-79
2021/12/30 10:57:19;;;;;;;55.97;39.10;;;;;;;;;;5061677;28;20996;-80
2021/12/30 10:59:47;;;;;;;70.97;47.77;;;;;;;;;;5062189;28;20495;-79
2021/12/30 11:02:15;;;;;;;85.47;52.70;;;;;;;;;;5063038;28;20553;-79
2021/12/30 11:04:43;;;;;;;81.53;51.90;;;;;;;;;;5062829;28;20483;-78
2021/12/30 11:07:10;;;;;;;69.43;45.30;;;;;;;;;;5061299;28;20830;-80
2021/12/30 11:09:45;;;;;;;35.50;24.80;;;;;;;;;;5061693;28;20482;-80
2021/12/30 11:12:11;;;;;;;22.80;16.97;;;;;;;;;;5064635;28;20520;-80
2021/12/30 11:14:38;;;;;;;48.90;32.40;;;;;;;;;;5061257;28;20944;-79
2021/12/30 11:17:06;;;;;;;28.60;20.10;;;;;;;;;;5062703;28;20467;-80
2021/12/30 11:19:35;;;;;;;17.63;13.00;;;;;;;;;;5062106;28;20506;-79
2021/12/30 11:22:03;;;;;;;21.33;15.80;;;;;;;;;;5061597;28;20468;-80
2021/12/30 11:24:30;;;;;;;9.50;7.40;;;;;;;;;;5062118;28;20950;-79
2021/12/30 11:26:58;;;;;;;6.53;5.80;;;;;;;;;;5061739;28;21073;-79
2021/12/30 11:29:25;;;;;;;9.27;6.93;;;;;;;;;;5061883;28;20456;-80
2021/12/30 11:31:51;;;;;;;7.90;5.53;;;;;;;;;;5061111;28;20834;-79
2021/12/30 11:34:18;;;;;;;7.20;5.43;;;;;;;;;;5062748;28;20448;-80
2021/12/30 11:36:44;;;;;;;9.97;6.90;;;;;;;;;;5062382;28;20521;-79
2021/12/30 11:39:15;;;;;;;10.03;6.57;;;;;;;;;;5062115;28;20435;-80
2021/12/30 11:41:43;;;;;;;5.10;3.90;;;;;;;;;;5059520;28;20946;-79
2021/12/30 11:44:30;;;;;;;8.50;4.10;;;;;;;;;;5062056;28;20951;-80
2021/12/30 11:46:56;;;;;;;4.03;3.40;;;;;;;;;;5062070;28;20466;-79
2021/12/30 11:49:23;;;;;;;4.33;3.73;;;;;;;;;;5064312;28;20450;-80
2021/12/30 11:51:50;;;;;;;3.30;3.00;;;;;;;;;;5061646;28;20479;-80
2021/12/30 11:54:33;;;;;;;4.37;3.97;;;;;;;;;;5062292;28;20451;-80
2021/12/30 11:57:18;;;;;;;4.87;4.23;;;;;;;;;;5060547;28;20464;-80
2021/12/30 11:59:46;;;;;;;4.87;3.70;;;;;;;;;;5060815;28;20835;-79
2021/12/30 12:02:32;;;;;;;4.83;4.20;;;;;;;;;;5060415;28;20467;-79
2021/12/30 12:04:58;;;;;;;5.47;4.23;;;;;;;;;;5061366;28;20505;-80
2021/12/30 12:07:25;;;;;;;8.23;4.40;;;;;;;;;;5061204;28;20471;-79
2021/12/30 12:09:51;;;;;;;8.33;4.40;;;;;;;;;;5060258;28;20852;-79
2021/12/30 12:12:29;;;;;;;6.00;3.90;;;;;;;;;;5061272;28;20464;-80
2021/12/30 12:15:00;;;;;;;4.67;3.83;;;;;;;;;;5061104;28;20446;-80
2021/12/30 12:17:30;;;;;;;5.90;4.97;;;;;;;;;;5059876;28;20554;-79
2021/12/30 12:19:57;;;;;;;6.50;5.20;;;;;;;;;;5061417;28;20446;-79
2021/12/30 12:22:28;;;;;;;7.47;5.87;;;;;;;;;;5062524;28;20471;-80
2021/12/30 12:25:05;;;;;;;8.87;5.43;;;;;;;;;;5063043;28;20443;-79
2021/12/30 12:27:32;;;;;;;7.03;5.37;;;;;;;;;;5060053;28;20478;-80
2021/12/30 12:30:00;;;;;;;6.33;4.50;;;;;;;;;;5061063;28;20895;-80
2021/12/30 12:32:38;;;;;;;5.77;4.23;;;;;;;;;;5058955;28;20463;-80
2021/12/30 12:35:06;;;;;;;10.30;5.40;;;;;;;;;;5061526;28;20435;-80
2021/12/30 12:37:49;;;;;;;4.83;4.40;;;;;;;;;;5060922;28;20470;-79
2021/12/30 12:40:37;;;;;;;6.70;4.87;;;;;;;;;;5059892;28;20558;-80
2021/12/30 12:43:13;;;;;;;6.07;5.07;;;;;;;;;;5056184;28;20474;-81
2021/12/30 12:45:51;;;;;;;9.50;5.00;;;;;;;;;;5064480;28;20576;-82
2021/12/30 12:48:21;;;;;;;6.23;4.73;;;;;;;;;;5063587;28;20481;-82
2021/12/30 12:50:49;;;;;;;7.10;4.90;;;;;;;;;;5062603;28;20466;-80
2021/12/30 12:53:33;;;;;;;7.80;5.67;;;;;;;;;;5061553;28;20474;-80
2021/12/30 12:56:01;;;;;;;5.70;4.97;;;;;;;;;;5060049;28;20469;-79
2021/12/30 12:58:28;;;;;;;6.20;4.70;;;;;;;;;;5059320;28;20463;-79
2021/12/30 13:00:57;;;;;;;7.17;4.77;;;;;;;;;;5061069;28;20522;-80
2021/12/30 13:03:23;;;;;;;7.30;5.63;;;;;;;;;;5060948;28;20463;-81
2021/12/30 13:05:53;;;;;;;5.97;4.00;;;;;;;;;;5063424;28;20836;-81
2021/12/30 13:08:20;;;;;;;5.67;4.40;;;;;;;;;;5062898;28;20459;-80
2021/12/30 13:10:46;;;;;;;6.40;4.90;;;;;;;;;;5064289;28;20470;-81
2021/12/30 13:13:12;;;;;;;12.63;5.57;;;;;;;;;;5062019;28;20999;-80
2021/12/30 13:15:39;;;;;;;7.37;5.33;;;;;;;;;;5063160;28;20456;-80
2021/12/30 13:18:14;;;;;;;6.40;4.83;;;;;;;;;;5061299;28;20539;-80
2021/12/30 13:20:41;;;;;;;6.70;4.80;;;;;;;;;;5062579;28;20463;-80
2021/12/30 13:23:07;;;;;;;8.47;5.50;;;;;;;;;;5062346;28;20487;-81
2021/12/30 13:25:35;;;;;;;6.73;5.10;;;;;;;;;;5060925;28;20444;-80
2021/12/30 13:28:03;;;;;;;12.43;6.00;;;;;;;;;;5062289;28;20477;-79
2021/12/30 13:30:30;;;;;;;7.47;5.10;;;;;;;;;;5060672;28;20478;-80
2021/12/30 13:32:56;;;;;;;11.17;5.73;;;;;;;;;;5062464;28;20475;-80
2021/12/30 13:35:25;;;;;;;8.87;5.83;;;;;;;;;;5060236;28;20834;-80
2021/12/30 13:37:52;;;;;;;9.63;6.97;;;;;;;;;;5063289;28;20928;-81
2021/12/30 13:40:23;;;;;;;9.23;8.03;;;;;;;;;;5062199;28;20867;-80
2021/12/30 13:42:50;;;;;;;9.30;6.80;;;;;;;;;;5062021;28;20486;-80
2021/12/30 13:45:17;;;;;;;11.83;7.10;;;;;;;;;;5060046;28;20447;-80
2021/12/30 13:47:43;;;;;;;13.50;7.70;;;;;;;;;;5062314;28;20470;-80
2021/12/30 13:50:11;;;;;;;10.00;6.83;;;;;;;;;;5062181;28;20528;-80
2021/12/30 13:52:40;;;;;;;11.03;7.40;;;;;;;;;;5065708;28;20498;-80
2021/12/30 13:55:11;;;;;;;11.07;7.90;;;;;;;;;;5065380;28;20549;-81
2021/12/30 13:57:37;;;;;;;10.70;8.07;;;;;;;;;;5064931;28;20513;-80
2021/12/30 14:00:04;;;;;;;12.60;7.70;;;;;;;;;;5064987;28;20463;-80
2021/12/30 14:02:31;;;;;;;9.23;8.00;;;;;;;;;;5064690;28;20458;-80
2021/12/30 14:05:03;;;;;;;15.30;8.03;;;;;;;;;;5065305;28;20445;-81
2021/12/30 14:07:32;;;;;;;11.37;8.10;;;;;;;;;;5064175;28;20905;-80
2021/12/30 14:10:00;;;;;;;18.23;7.80;;;;;;;;;;5065011;28;20478;-80
2021/12/30 14:12:26;;;;;;;12.40;8.90;;;;;;;;;;5063355;28;20517;-80
2021/12/30 14:14:52;;;;;;;16.90;8.47;;;;;;;;;;5065224;28;20453;-81
2021/12/30 14:17:18;;;;;;;14.77;8.97;;;;;;;;;;5064219;28;20468;-80
2021/12/30 14:19:50;;;;;;;12.10;8.70;;;;;;;;;;5062251;28;20448;-79
2021/12/30 14:22:16;;;;;;;17.97;8.23;;;;;;;;;;5065144;28;20520;-81
2021/12/30 14:24:43;;;;;;;12.17;8.67;;;;;;;;;;5065182;28;20443;-79
2021/12/30 14:27:14;;;;;;;14.23;9.33;;;;;;;;;;5066121;28;20459;-80